Prince Albert, Prince Albert Glass Field Airport (CYPA)

NamePrince Albert Glass Field Airport
CityPrince Albert
CountryCanada
ICAOCYPA
IATAYPA
Altitude428 m
CoordinatesGoogle Map
Live Air TrafficLiveATC.net
METARCYPA 172300Z 08003KT 4SM -SN BKN042 M18/M22 A3050 RMK SC7 SLP377
2019-02-17 23:00:00 Wind: East-Northeast (80°) 1.54 m/s - Visibility: 6437.36 m - Weather: Light Snow - Temperature: -18 °C - Dew point: -22 °C - Humidity: 71.1% - Pressure: 1032.85 hPa
Statistics

The table below shows the detailed information of all flights to/from Prince Albert, Prince Albert Glass Field Airport (CYPA).